KFSM METAR and TAF | Updated Today

KFSM METAR

Fort Smith Regional Airport

Observation time: 22 min. ago

KFSM 301953Z 34013KT 10SM CLR 10/M08 A3041 RMK AO2 SLP300 T01001078

Need help? Read our tutorial on how to read METARs or read the parsed version below.

Fort Smith Regional Airport (KFSM) METAR

  • Weather conditions on Wed, 30 Nov 2022 19:53:00 +0000 (22 min. ago):
  • Present conditions: Dry
  • Clouds: Clear skies
  • Visibility: 16093 meters
  • Wind: 340 degrees at 13 knots
  • Temperature: 10 celsius
  • Dew point: -8 celsius
  • Pressure: 30.41 inHg
  • Remarks: AO2 SLP300 T01001078


Useful to know...

KFSM TAF

Fort Smith Regional Airport

KFSM 301720Z 3018/0118 VRB04KT P6SM SKC FM010300 07004KT P6SM FEW250 FM011500 12010KT P6SM SCT250
Observation time: 2:55 hr. ago
Need help? Read our tutorial on how to read TAFs or read the parsed version below.

Parsed version of TAF for Fort Smith Regional Airport (KFSM)

  • From 30 November at 18:00 UTC, to day 01 of the month at 18:00 UTC
  • Clouds: No significant changes expected
  • Wind: Variable at 4
  • From day 1 of the month at 03:00 UTC
  • Clouds: A few at 7620 meters
  • Wind: 70 degrees at 4
  • From day 1 of the month at 15:00 UTC
  • Clouds: Scattered at 7620 meters
  • Wind: 120 degrees at 10